Time;durP1;ratioP1;P1;durP2;ratioP2;P2;SDS_P1;SDS_P2;PMS_P1;PMS_P2;Temp;Humidity;BMP_temperature;BMP_pressure;BME280_temperature;BME280_humidity;BME280_pressure;Samples;Min_cycle;Max_cycle;Signal;HPM_P1;HPM_P2
2022/04/03 00:02:14;;;;;;;1.65;0.90;;;;;;;;;;5114984;28;20100;-78
2022/04/03 00:04:39;;;;;;;2.92;0.98;;;;;;;;;;5097588;28;20031;-78
2022/04/03 00:07:05;;;;;;;1.88;0.90;;;;;;;;;;5080568;28;20494;-78
2022/04/03 00:09:31;;;;;;;2.83;0.95;;;;;;;;;;5114752;28;20409;-78
2022/04/03 00:11:56;;;;;;;4.13;0.98;;;;;;;;;;5080750;28;20184;-78
2022/04/03 00:14:21;;;;;;;1.80;0.82;;;;;;;;;;5060202;28;20027;-78
2022/04/03 00:16:47;;;;;;;2.50;1.08;;;;;;;;;;5076947;28;20035;-78
2022/04/03 00:19:12;;;;;;;2.35;0.98;;;;;;;;;;5076820;28;20153;-78
2022/04/03 00:21:38;;;;;;;4.32;0.90;;;;;;;;;;5077022;28;20117;-78
2022/04/03 00:24:04;;;;;;;2.53;1.10;;;;;;;;;;5077044;28;20032;-78
2022/04/03 00:26:30;;;;;;;2.40;1.05;;;;;;;;;;5059644;28;20403;-78
2022/04/03 00:28:55;;;;;;;3.13;1.10;;;;;;;;;;5093778;28;20039;-78
2022/04/03 00:31:21;;;;;;;2.25;1.05;;;;;;;;;;5094030;28;20036;-78
2022/04/03 00:33:46;;;;;;;1.50;0.70;;;;;;;;;;5093252;28;20082;-78
2022/04/03 00:36:12;;;;;;;1.80;0.80;;;;;;;;;;5093646;28;20044;-78
2022/04/03 00:38:37;;;;;;;1.70;0.68;;;;;;;;;;5093439;28;20089;-78
2022/04/03 00:41:03;;;;;;;1.27;0.65;;;;;;;;;;5077031;28;20072;-78
2022/04/03 00:43:28;;;;;;;1.85;0.80;;;;;;;;;;5095605;28;20032;-78
2022/04/03 00:45:53;;;;;;;2.60;1.23;;;;;;;;;;5079911;28;20046;-78
2022/04/03 00:48:19;;;;;;;1.50;0.80;;;;;;;;;;5096603;28;20036;-77
2022/04/03 00:50:45;;;;;;;2.45;0.73;;;;;;;;;;5079830;28;20043;-78
2022/04/03 00:53:11;;;;;;;2.15;0.80;;;;;;;;;;5080260;28;20043;-78
2022/04/03 00:55:40;;;;;;;1.50;0.75;;;;;;;;;;5096380;28;20053;-78
2022/04/03 00:58:06;;;;;;;2.13;0.90;;;;;;;;;;5096022;28;20047;-78
2022/04/03 01:00:32;;;;;;;1.92;0.77;;;;;;;;;;5092982;28;20096;-78
2022/04/03 01:02:57;;;;;;;1.98;0.82;;;;;;;;;;5075796;28;20485;-79
2022/04/03 01:05:23;;;;;;;2.65;1.15;;;;;;;;;;5076598;28;20028;-78
2022/04/03 01:07:48;;;;;;;1.52;0.50;;;;;;;;;;5076218;28;20038;-78
2022/04/03 01:10:14;;;;;;;2.70;1.17;;;;;;;;;;5059457;28;20040;-78
2022/04/03 01:12:40;;;;;;;1.48;0.57;;;;;;;;;;5059508;28;20032;-78
2022/04/03 01:15:09;;;;;;;1.85;0.88;;;;;;;;;;5042926;28;20514;-78
2022/04/03 01:17:35;;;;;;;2.05;0.98;;;;;;;;;;5059003;28;20044;-78
2022/04/03 01:20:01;;;;;;;2.00;0.60;;;;;;;;;;5075889;28;20112;-78
2022/04/03 01:22:26;;;;;;;2.10;0.65;;;;;;;;;;5059497;28;20042;-78
2022/04/03 01:24:56;;;;;;;1.25;0.68;;;;;;;;;;5060263;28;20039;-78
2022/04/03 01:27:21;;;;;;;2.35;0.90;;;;;;;;;;5058728;28;20036;-78
2022/04/03 01:29:48;;;;;;;2.00;0.70;;;;;;;;;;5075928;28;20032;-78
2022/04/03 01:32:13;;;;;;;2.25;0.80;;;;;;;;;;5075883;28;20047;-78
2022/04/03 01:34:39;;;;;;;1.67;0.55;;;;;;;;;;5059244;28;20040;-78
2022/04/03 01:37:04;;;;;;;2.40;0.80;;;;;;;;;;5058971;28;20517;-78
2022/04/03 01:39:31;;;;;;;2.53;0.70;;;;;;;;;;5058835;28;20040;-78
2022/04/03 01:41:56;;;;;;;1.42;0.60;;;;;;;;;;5059175;28;20036;-79
2022/04/03 01:44:22;;;;;;;2.45;0.73;;;;;;;;;;5064841;28;20081;-78
2022/04/03 01:46:47;;;;;;;1.45;0.57;;;;;;;;;;5075348;28;20202;-78
2022/04/03 01:49:13;;;;;;;2.00;0.85;;;;;;;;;;5075362;28;20040;-78
2022/04/03 01:51:38;;;;;;;1.58;0.90;;;;;;;;;;5075362;28;20497;-79
2022/04/03 01:54:04;;;;;;;2.05;0.60;;;;;;;;;;5075256;28;20099;-78
2022/04/03 01:56:30;;;;;;;1.92;0.80;;;;;;;;;;5074734;28;20104;-78
2022/04/03 01:58:56;;;;;;;1.33;0.68;;;;;;;;;;5076816;28;20032;-78
2022/04/03 02:01:21;;;;;;;2.22;1.10;;;;;;;;;;5078589;28;20042;-78
2022/04/03 02:03:47;;;;;;;1.20;0.60;;;;;;;;;;5078371;28;20084;-78
2022/04/03 02:06:13;;;;;;;3.60;1.08;;;;;;;;;;5095737;28;20035;-78
2022/04/03 02:08:39;;;;;;;1.70;0.60;;;;;;;;;;5078395;28;20489;-78
2022/04/03 02:11:04;;;;;;;1.95;0.93;;;;;;;;;;5078485;28;20044;-78
2022/04/03 02:13:30;;;;;;;2.20;0.80;;;;;;;;;;5075728;28;20451;-78
2022/04/03 02:15:55;;;;;;;1.77;0.60;;;;;;;;;;5058057;28;20036;-79
2022/04/03 02:18:20;;;;;;;2.08;0.93;;;;;;;;;;5074844;28;20398;-78
2022/04/03 02:20:46;;;;;;;1.25;0.60;;;;;;;;;;5058459;28;20032;-78
2022/04/03 02:23:12;;;;;;;1.67;0.80;;;;;;;;;;5074370;28;20133;-78
2022/04/03 02:25:38;;;;;;;1.65;0.65;;;;;;;;;;5074418;28;20032;-78
2022/04/03 02:28:04;;;;;;;1.80;1.05;;;;;;;;;;5057921;28;20114;-78
2022/04/03 02:30:29;;;;;;;1.55;0.63;;;;;;;;;;5091502;28;20438;-78
2022/04/03 02:32:55;;;;;;;2.40;0.90;;;;;;;;;;5041631;28;20059;-78
2022/04/03 02:35:20;;;;;;;1.58;0.80;;;;;;;;;;5074923;28;20040;-78
2022/04/03 02:37:46;;;;;;;1.70;0.80;;;;;;;;;;5057609;28;20087;-78
2022/04/03 02:40:14;;;;;;;2.22;0.90;;;;;;;;;;5058101;28;20047;-78
2022/04/03 02:42:39;;;;;;;2.03;0.70;;;;;;;;;;5074648;28;20036;-78
2022/04/03 02:45:05;;;;;;;1.38;0.60;;;;;;;;;;5089583;28;20110;-78
2022/04/03 02:47:32;;;;;;;1.33;0.60;;;;;;;;;;5111756;28;20039;-78
2022/04/03 02:49:57;;;;;;;2.95;0.80;;;;;;;;;;5094403;28;20028;-78
2022/04/03 02:52:23;;;;;;;2.35;0.82;;;;;;;;;;5077811;28;20114;-78
2022/04/03 02:54:48;;;;;;;3.10;0.93;;;;;;;;;;5077286;28;20078;-78
2022/04/03 02:57:17;;;;;;;1.95;0.80;;;;;;;;;;5077135;28;20413;-78
2022/04/03 02:59:43;;;;;;;1.90;0.73;;;;;;;;;;5077744;28;20100;-78
2022/04/03 03:02:08;;;;;;;2.22;0.90;;;;;;;;;;5060930;28;20485;-78
2022/04/03 03:04:37;;;;;;;2.00;0.85;;;;;;;;;;5077472;28;20031;-78
2022/04/03 03:07:06;;;;;;;2.30;0.90;;;;;;;;;;5078415;28;20077;-78
2022/04/03 03:09:32;;;;;;;2.03;0.77;;;;;;;;;;5060547;28;20039;-78
2022/04/03 03:12:00;;;;;;;1.63;0.75;;;;;;;;;;5077435;28;20453;-78
2022/04/03 03:14:26;;;;;;;2.00;0.85;;;;;;;;;;5074178;28;20042;-78
2022/04/03 03:16:51;;;;;;;2.60;0.98;;;;;;;;;;5040703;28;20027;-78
2022/04/03 03:19:17;;;;;;;1.40;0.70;;;;;;;;;;5074252;28;20078;-78
2022/04/03 03:21:43;;;;;;;1.08;0.60;;;;;;;;;;5057314;28;20036;-78
2022/04/03 03:24:09;;;;;;;1.67;0.80;;;;;;;;;;5074362;28;20036;-78
2022/04/03 03:26:35;;;;;;;1.20;0.70;;;;;;;;;;5073635;28;20032;-78
2022/04/03 03:29:01;;;;;;;2.10;0.88;;;;;;;;;;5057038;28;20036;-78
2022/04/03 03:31:26;;;;;;;1.17;0.55;;;;;;;;;;5057493;28;20517;-78
2022/04/03 03:33:52;;;;;;;1.75;0.65;;;;;;;;;;5057074;28;20039;-78
2022/04/03 03:36:17;;;;;;;1.35;0.65;;;;;;;;;;5057003;28;20036;-78
2022/04/03 03:38:43;;;;;;;1.20;0.70;;;;;;;;;;5073192;28;20418;-78
2022/04/03 03:41:09;;;;;;;1.67;0.80;;;;;;;;;;5056862;28;20036;-78
2022/04/03 03:43:35;;;;;;;1.60;0.80;;;;;;;;;;5059939;28;20039;-78
2022/04/03 03:46:00;;;;;;;1.60;1.42;;;;;;;;;;5093908;28;20102;-78
2022/04/03 03:48:26;;;;;;;0.98;0.45;;;;;;;;;;5077170;28;20393;-78
2022/04/03 03:50:51;;;;;;;2.90;0.88;;;;;;;;;;5093834;28;20081;-78
2022/04/03 03:53:17;;;;;;;1.83;0.90;;;;;;;;;;5093568;28;20067;-78
2022/04/03 03:55:44;;;;;;;1.73;0.90;;;;;;;;;;5059879;28;20048;-78
2022/04/03 03:58:09;;;;;;;1.98;0.80;;;;;;;;;;5082423;28;20101;-78
2022/04/03 04:00:35;;;;;;;2.40;0.90;;;;;;;;;;5090251;28;20051;-78
2022/04/03 04:03:01;;;;;;;2.72;1.20;;;;;;;;;;5076774;28;20028;-78
2022/04/03 04:05:27;;;;;;;2.35;1.05;;;;;;;;;;5076414;28;20126;-78
2022/04/03 04:07:52;;;;;;;2.67;1.13;;;;;;;;;;5093198;28;20036;-78
2022/04/03 04:10:18;;;;;;;1.77;0.98;;;;;;;;;;5093662;28;20031;-78
2022/04/03 04:12:44;;;;;;;1.70;0.60;;;;;;;;;;5059456;28;20126;-78
2022/04/03 04:15:10;;;;;;;1.95;0.55;;;;;;;;;;5073273;28;20040;-78
2022/04/03 04:17:36;;;;;;;1.90;1.00;;;;;;;;;;5056851;28;20032;-78
2022/04/03 04:20:06;;;;;;;1.70;0.90;;;;;;;;;;5073228;28;20047;-78
2022/04/03 04:22:31;;;;;;;2.03;0.70;;;;;;;;;;5073615;28;20028;-78
2022/04/03 04:24:57;;;;;;;1.73;0.70;;;;;;;;;;5072742;28;20043;-77
2022/04/03 04:27:22;;;;;;;1.38;0.90;;;;;;;;;;5089420;28;20054;-78
2022/04/03 04:29:47;;;;;;;1.80;0.73;;;;;;;;;;5089998;28;20433;-78
2022/04/03 04:32:13;;;;;;;2.47;0.70;;;;;;;;;;5073130;28;20208;-77
2022/04/03 04:34:39;;;;;;;1.95;0.77;;;;;;;;;;5073019;28;20426;-78
2022/04/03 04:37:04;;;;;;;2.42;0.82;;;;;;;;;;5093659;28;20417;-78
2022/04/03 04:39:31;;;;;;;2.03;0.82;;;;;;;;;;5076649;28;20093;-78
2022/04/03 04:41:57;;;;;;;2.45;0.80;;;;;;;;;;5093434;28;20028;-78
2022/04/03 04:44:22;;;;;;;3.30;1.05;;;;;;;;;;5097171;28;20031;-78
2022/04/03 04:46:48;;;;;;;1.80;0.88;;;;;;;;;;5079793;28;20040;-78
2022/04/03 04:49:16;;;;;;;1.33;0.70;;;;;;;;;;5097137;28;20040;-78
2022/04/03 04:51:43;;;;;;;1.73;0.98;;;;;;;;;;5080736;28;20119;-78
2022/04/03 04:54:08;;;;;;;1.65;1.00;;;;;;;;;;5079978;28;20397;-78
2022/04/03 04:56:35;;;;;;;1.95;0.90;;;;;;;;;;5096282;28;20040;-78
2022/04/03 04:59:01;;;;;;;1.80;0.70;;;;;;;;;;5080346;28;20110;-78
2022/04/03 05:01:26;;;;;;;2.20;0.95;;;;;;;;;;5096831;28;20131;-78
2022/04/03 05:03:52;;;;;;;2.00;1.05;;;;;;;;;;5082098;28;20050;-79
2022/04/03 05:06:17;;;;;;;2.22;0.90;;;;;;;;;;5091064;28;20413;-80
2022/04/03 05:08:43;;;;;;;2.90;1.05;;;;;;;;;;5040157;28;20417;-76
2022/04/03 05:11:08;;;;;;;1.77;0.85;;;;;;;;;;5057062;28;20054;-76
2022/04/03 05:13:34;;;;;;;1.90;0.90;;;;;;;;;;5084169;28;20042;-76
2022/04/03 05:15:59;;;;;;;3.28;1.10;;;;;;;;;;5095279;28;20035;-76
2022/04/03 05:18:25;;;;;;;1.70;0.75;;;;;;;;;;5096225;28;20124;-76
2022/04/03 05:20:50;;;;;;;3.33;0.90;;;;;;;;;;5092532;28;20097;-76
2022/04/03 05:23:16;;;;;;;2.10;0.95;;;;;;;;;;5076087;28;20097;-76
2022/04/03 05:25:41;;;;;;;2.63;0.90;;;;;;;;;;5091873;28;20402;-76
2022/04/03 05:28:08;;;;;;;2.63;1.20;;;;;;;;;;5075704;28;20089;-76
2022/04/03 05:30:34;;;;;;;3.50;1.27;;;;;;;;;;5079440;28;20107;-76
2022/04/03 05:33:00;;;;;;;2.28;1.15;;;;;;;;;;5078923;28;20746;-77
2022/04/03 05:35:25;;;;;;;6.70;1.80;;;;;;;;;;5079007;28;20042;-77
2022/04/03 05:37:50;;;;;;;3.13;1.88;;;;;;;;;;5061527;28;20035;-77
2022/04/03 05:40:16;;;;;;;3.63;1.27;;;;;;;;;;5074947;28;20052;-79
2022/04/03 05:42:42;;;;;;;2.25;1.20;;;;;;;;;;5059018;28;20041;-83
2022/04/03 05:45:08;;;;;;;3.63;1.50;;;;;;;;;;5091376;28;20118;-79
2022/04/03 05:47:33;;;;;;;2.42;1.10;;;;;;;;;;5094724;28;20031;-79
2022/04/03 05:49:58;;;;;;;2.25;1.23;;;;;;;;;;5078546;28;20095;-78
2022/04/03 05:52:24;;;;;;;2.40;1.50;;;;;;;;;;5095186;28;20035;-80
2022/04/03 05:54:50;;;;;;;2.88;0.90;;;;;;;;;;5078232;28;20081;-80
2022/04/03 05:57:16;;;;;;;4.47;1.70;;;;;;;;;;5112018;28;20039;-80
2022/04/03 05:59:41;;;;;;;5.07;1.42;;;;;;;;;;5095613;28;20035;-80
2022/04/03 06:02:06;;;;;;;5.20;1.48;;;;;;;;;;5061907;28;20044;-80
2022/04/03 06:04:33;;;;;;;4.50;2.00;;;;;;;;;;5077982;28;20096;-80
2022/04/03 06:06:59;;;;;;;6.07;1.80;;;;;;;;;;5078875;28;20035;-79
2022/04/03 06:09:24;;;;;;;15.82;2.33;;;;;;;;;;5078223;28;20047;-79
2022/04/03 06:11:51;;;;;;;5.28;1.77;;;;;;;;;;5078286;28;20169;-79
2022/04/03 06:14:17;;;;;;;4.43;2.10;;;;;;;;;;5078371;28;20039;-78
2022/04/03 06:16:42;;;;;;;3.72;1.90;;;;;;;;;;5078220;28;20038;-79
2022/04/03 06:19:08;;;;;;;4.38;1.83;;;;;;;;;;5076048;28;20071;-79
2022/04/03 06:21:33;;;;;;;4.68;2.03;;;;;;;;;;5078115;28;20038;-79
2022/04/03 06:23:58;;;;;;;3.55;2.00;;;;;;;;;;5073765;28;20028;-78
2022/04/03 06:26:24;;;;;;;5.90;2.10;;;;;;;;;;5073203;28;20085;-79
2022/04/03 06:28:49;;;;;;;4.28;1.83;;;;;;;;;;5083592;28;20126;-78
2022/04/03 06:31:15;;;;;;;2.97;1.73;;;;;;;;;;5094695;28;20416;-79
2022/04/03 06:33:40;;;;;;;4.72;2.08;;;;;;;;;;5062035;28;20408;-78
2022/04/03 06:36:07;;;;;;;6.18;2.50;;;;;;;;;;5093477;28;20387;-79
2022/04/03 06:38:33;;;;;;;3.70;2.03;;;;;;;;;;5057904;28;20051;-78
2022/04/03 06:40:58;;;;;;;6.32;2.67;;;;;;;;;;5074168;28;20111;-79
2022/04/03 06:43:25;;;;;;;3.00;1.90;;;;;;;;;;5060048;28;20424;-78
2022/04/03 06:45:51;;;;;;;5.70;2.25;;;;;;;;;;5090990;28;20085;-78
2022/04/03 06:48:16;;;;;;;5.78;2.58;;;;;;;;;;5074660;28;20036;-78
2022/04/03 06:50:42;;;;;;;4.47;2.15;;;;;;;;;;5040411;28;20123;-78
2022/04/03 06:53:07;;;;;;;5.45;2.13;;;;;;;;;;5057389;28;20044;-78
2022/04/03 06:55:33;;;;;;;5.28;1.90;;;;;;;;;;5073488;28;20040;-78
2022/04/03 06:57:58;;;;;;;4.80;2.20;;;;;;;;;;5084342;28;20034;-78
2022/04/03 07:00:24;;;;;;;5.40;2.00;;;;;;;;;;5094542;28;20509;-77
2022/04/03 07:02:51;;;;;;;7.43;2.63;;;;;;;;;;5077540;28;20043;-77
2022/04/03 07:05:17;;;;;;;3.33;2.17;;;;;;;;;;5093803;28;20032;-77
2022/04/03 07:07:42;;;;;;;5.78;2.15;;;;;;;;;;5060517;28;20031;-79
2022/04/03 07:10:09;;;;;;;7.68;2.38;;;;;;;;;;5077136;28;20383;-80
2022/04/03 07:12:35;;;;;;;5.75;2.50;;;;;;;;;;5094286;28;20035;-79
2022/04/03 07:15:01;;;;;;;6.63;2.28;;;;;;;;;;5057037;28;20445;-79
2022/04/03 07:17:26;;;;;;;15.15;2.97;;;;;;;;;;5084922;28;20048;-78
2022/04/03 07:19:52;;;;;;;11.32;2.63;;;;;;;;;;5094102;28;20516;-79
2022/04/03 07:22:18;;;;;;;11.07;2.75;;;;;;;;;;5077728;28;20036;-80
2022/04/03 07:24:43;;;;;;;5.55;2.75;;;;;;;;;;5076534;28;20058;-79
2022/04/03 07:27:09;;;;;;;7.30;2.92;;;;;;;;;;5076897;28;20417;-79
2022/04/03 07:29:34;;;;;;;9.93;2.35;;;;;;;;;;5060443;28;20036;-79
2022/04/03 07:32:00;;;;;;;10.68;2.72;;;;;;;;;;5060644;28;20067;-79
2022/04/03 07:34:25;;;;;;;10.48;2.88;;;;;;;;;;5060344;28;20031;-79
2022/04/03 07:36:52;;;;;;;8.55;2.78;;;;;;;;;;5077439;28;20050;-79
2022/04/03 07:39:17;;;;;;;8.43;2.55;;;;;;;;;;5076986;28;20027;-79
2022/04/03 07:41:42;;;;;;;7.63;2.33;;;;;;;;;;5076770;28;20040;-79
2022/04/03 07:44:08;;;;;;;11.52;3.22;;;;;;;;;;5072440;28;20402;-79
2022/04/03 07:46:34;;;;;;;6.75;2.67;;;;;;;;;;5073525;28;20036;-79
2022/04/03 07:49:00;;;;;;;3.50;1.95;;;;;;;;;;5073624;28;20116;-80
2022/04/03 07:51:27;;;;;;;5.88;2.42;;;;;;;;;;5074031;28;20040;-79
2022/04/03 07:53:53;;;;;;;8.52;2.38;;;;;;;;;;5073351;28;20124;-79
2022/04/03 07:56:18;;;;;;;4.93;2.17;;;;;;;;;;5072904;28;20035;-79
2022/04/03 07:58:43;;;;;;;9.57;2.70;;;;;;;;;;5072993;28;20520;-79
2022/04/03 08:01:09;;;;;;;6.78;1.90;;;;;;;;;;5076810;28;20463;-79
2022/04/03 08:03:34;;;;;;;6.30;2.03;;;;;;;;;;5076325;28;20535;-79
2022/04/03 08:06:00;;;;;;;4.88;2.25;;;;;;;;;;5110544;28;20065;-79
2022/04/03 08:08:25;;;;;;;4.78;1.63;;;;;;;;;;5059986;28;20036;-79
2022/04/03 08:10:50;;;;;;;6.50;2.10;;;;;;;;;;5095434;28;20040;-79
2022/04/03 08:13:16;;;;;;;8.27;2.45;;;;;;;;;;5080429;28;20039;-79
2022/04/03 08:15:42;;;;;;;5.68;2.30;;;;;;;;;;5077238;28;20410;-79
2022/04/03 08:18:07;;;;;;;5.35;1.95;;;;;;;;;;5043708;28;20027;-79
2022/04/03 08:20:33;;;;;;;3.33;1.77;;;;;;;;;;5060768;28;20040;-79
2022/04/03 08:23:01;;;;;;;4.95;1.65;;;;;;;;;;5077108;28;20063;-79
2022/04/03 08:25:27;;;;;;;3.50;1.65;;;;;;;;;;5077306;28;20122;-79
2022/04/03 08:27:54;;;;;;;3.58;2.35;;;;;;;;;;5076890;28;20119;-79
2022/04/03 08:30:22;;;;;;;4.70;2.40;;;;;;;;;;5060636;28;20055;-79
2022/04/03 08:32:48;;;;;;;4.38;2.50;;;;;;;;;;5060470;28;20462;-79
2022/04/03 08:35:14;;;;;;;4.57;2.75;;;;;;;;;;5076783;28;20115;-79
2022/04/03 08:37:40;;;;;;;6.55;2.63;;;;;;;;;;5076675;28;20070;-79
2022/04/03 08:40:07;;;;;;;4.15;2.30;;;;;;;;;;5060008;28;20083;-79
2022/04/03 08:42:33;;;;;;;4.30;2.20;;;;;;;;;;5059898;28;20040;-79
2022/04/03 08:44:58;;;;;;;5.32;2.55;;;;;;;;;;5074203;28;20034;-78
2022/04/03 08:47:24;;;;;;;3.50;1.98;;;;;;;;;;5079711;28;20036;-77
2022/04/03 08:49:50;;;;;;;4.20;1.83;;;;;;;;;;5096904;28;20044;-79
2022/04/03 08:52:15;;;;;;;3.22;1.90;;;;;;;;;;5063335;28;20040;-79
2022/04/03 08:54:41;;;;;;;2.85;1.67;;;;;;;;;;5096649;28;20120;-80
2022/04/03 08:57:06;;;;;;;5.40;2.00;;;;;;;;;;5096406;28;20031;-77
2022/04/03 08:59:32;;;;;;;5.13;1.77;;;;;;;;;;5093209;28;20440;-77
2022/04/03 09:01:57;;;;;;;3.80;2.00;;;;;;;;;;5075928;28;20505;-77
2022/04/03 09:04:23;;;;;;;4.93;2.05;;;;;;;;;;5093056;28;20032;-80
2022/04/03 09:06:59;;;;;;;4.72;1.75;;;;;;;;;;5076145;28;20032;-84
2022/04/03 09:09:25;;;;;;;4.45;1.50;;;;;;;;;;5042920;28;20054;-82
2022/04/03 09:12:09;;;;;;;6.20;2.00;;;;;;;;;;5076081;28;20107;-83
2022/04/03 09:14:35;;;;;;;3.15;1.50;;;;;;;;;;5082989;28;20502;-80
2022/04/03 09:17:01;;;;;;;3.17;1.65;;;;;;;;;;5058940;28;20058;-81
2022/04/03 09:19:33;;;;;;;6.38;1.83;;;;;;;;;;5076389;28;20031;-81
2022/04/03 09:21:59;;;;;;;2.80;1.50;;;;;;;;;;5042796;28;20028;-81
2022/04/03 09:24:24;;;;;;;4.38;1.40;;;;;;;;;;5073103;28;20050;-80
2022/04/03 09:27:00;;;;;;;4.72;1.45;;;;;;;;;;5095506;28;20114;-80
2022/04/03 09:29:25;;;;;;;3.45;1.30;;;;;;;;;;5113275;28;20486;-81
2022/04/03 09:31:57;;;;;;;4.40;1.30;;;;;;;;;;5079143;28;20040;-77
2022/04/03 09:34:25;;;;;;;4.15;1.20;;;;;;;;;;5096528;28;20035;-82
2022/04/03 09:37:00;;;;;;;4.60;1.27;;;;;;;;;;5079513;28;20401;-80
2022/04/03 09:39:27;;;;;;;5.82;1.40;;;;;;;;;;5078802;28;20047;-80
2022/04/03 09:42:13;;;;;;;4.05;1.20;;;;;;;;;;5079118;28;20042;-80
2022/04/03 09:44:39;;;;;;;3.85;1.63;;;;;;;;;;5111675;28;20047;-80
2022/04/03 09:47:26;;;;;;;3.83;1.45;;;;;;;;;;5113033;28;20071;-80
2022/04/03 09:49:59;;;;;;;4.38;1.35;;;;;;;;;;5095528;28;20071;-80
2022/04/03 09:52:55;;;;;;;2.60;0.90;;;;;;;;;;5062247;28;20440;-79
2022/04/03 09:55:22;;;;;;;2.67;1.35;;;;;;;;;;5074766;28;20126;-79
2022/04/03 09:58:08;;;;;;;5.07;1.33;;;;;;;;;;5095619;28;20084;-80
2022/04/03 10:00:34;;;;;;;5.45;1.20;;;;;;;;;;5111335;28;20044;-78
2022/04/03 10:03:02;;;;;;;4.97;1.00;;;;;;;;;;5078681;28;20039;-78
2022/04/03 10:05:29;;;;;;;3.05;1.00;;;;;;;;;;5095497;28;20035;-78
2022/04/03 10:08:00;;;;;;;2.40;1.05;;;;;;;;;;5075954;28;20624;-77
2022/04/03 10:10:28;;;;;;;3.25;0.80;;;;;;;;;;5094675;28;20078;-77
2022/04/03 10:13:01;;;;;;;2.53;0.75;;;;;;;;;;5061782;28;20545;-77
2022/04/03 10:15:28;;;;;;;3.25;1.23;;;;;;;;;;5075129;28;20106;-77
2022/04/03 10:17:54;;;;;;;5.43;1.30;;;;;;;;;;5093179;28;20044;-77
2022/04/03 10:20:23;;;;;;;5.55;0.90;;;;;;;;;;5112073;28;20038;-77
2022/04/03 10:22:49;;;;;;;4.07;1.48;;;;;;;;;;5093210;28;20489;-77
2022/04/03 10:25:18;;;;;;;2.58;1.20;;;;;;;;;;5075568;28;20031;-77
2022/04/03 10:27:44;;;;;;;3.30;1.20;;;;;;;;;;5075241;28;20051;-77
2022/04/03 10:30:10;;;;;;;3.17;1.40;;;;;;;;;;5057767;28;20044;-77
2022/04/03 10:32:40;;;;;;;5.07;1.05;;;;;;;;;;5074670;28;20232;-77
2022/04/03 10:35:10;;;;;;;6.25;1.83;;;;;;;;;;5058647;28;20123;-77
2022/04/03 10:37:43;;;;;;;4.75;1.58;;;;;;;;;;5041686;28;20402;-77
2022/04/03 10:40:13;;;;;;;6.70;2.28;;;;;;;;;;5057878;28;20078;-78
2022/04/03 10:42:51;;;;;;;9.32;1.40;;;;;;;;;;5091061;28;20032;-78
2022/04/03 10:45:27;;;;;;;9.88;2.15;;;;;;;;;;5088195;28;20084;-78
2022/04/03 10:48:21;;;;;;;4.05;1.75;;;;;;;;;;5075294;28;20043;-77
2022/04/03 10:50:56;;;;;;;4.80;1.30;;;;;;;;;;5091021;28;20040;-78
2022/04/03 10:53:26;;;;;;;4.50;1.05;;;;;;;;;;5074492;28;20402;-77
2022/04/03 10:55:55;;;;;;;3.15;1.27;;;;;;;;;;5040586;28;20417;-77
2022/04/03 10:58:21;;;;;;;3.67;1.55;;;;;;;;;;5073899;28;20040;-78
2022/04/03 11:00:47;;;;;;;2.65;1.02;;;;;;;;;;5091442;28;20111;-78
2022/04/03 11:03:13;;;;;;;8.02;0.95;;;;;;;;;;5074198;28;20039;-77
2022/04/03 11:05:39;;;;;;;3.17;0.80;;;;;;;;;;5092499;28;20043;-78
2022/04/03 11:08:04;;;;;;;5.50;1.55;;;;;;;;;;5073951;28;20048;-78
2022/04/03 11:10:58;;;;;;;3.75;1.38;;;;;;;;;;5091857;28;20032;-77
2022/04/03 11:13:23;;;;;;;5.75;1.15;;;;;;;;;;5074368;28;20039;-78
2022/04/03 11:16:09;;;;;;;3.42;0.90;;;;;;;;;;5110550;28;20043;-78
2022/04/03 11:18:36;;;;;;;8.48;2.25;;;;;;;;;;5110869;28;20494;-78
2022/04/03 11:21:24;;;;;;;4.38;0.90;;;;;;;;;;5094334;28;20047;-78
2022/04/03 11:23:54;;;;;;;7.25;1.23;;;;;;;;;;5090157;28;20446;-78
2022/04/03 11:26:20;;;;;;;4.70;1.00;;;;;;;;;;5090147;28;20044;-78
2022/04/03 11:28:46;;;;;;;3.47;0.88;;;;;;;;;;5079612;28;20051;-77
2022/04/03 11:31:13;;;;;;;5.50;0.95;;;;;;;;;;5094452;28;20040;-78
2022/04/03 11:33:38;;;;;;;2.72;1.20;;;;;;;;;;5090758;28;20114;-78
2022/04/03 11:36:13;;;;;;;4.53;1.65;;;;;;;;;;5085151;28;20047;-77
2022/04/03 11:38:40;;;;;;;4.85;1.00;;;;;;;;;;5072462;28;20494;-78
2022/04/03 11:41:06;;;;;;;5.40;1.15;;;;;;;;;;5073263;28;20048;-78
2022/04/03 11:43:32;;;;;;;2.97;0.93;;;;;;;;;;5059627;28;20028;-77
2022/04/03 11:45:59;;;;;;;4.63;1.33;;;;;;;;;;5079327;28;20035;-78
2022/04/03 11:48:28;;;;;;;7.60;1.15;;;;;;;;;;5081193;28;20044;-78
2022/04/03 11:51:07;;;;;;;3.63;0.77;;;;;;;;;;5098311;28;20138;-78
2022/04/03 11:53:33;;;;;;;5.68;0.90;;;;;;;;;;5111116;28;20039;-78
2022/04/03 11:56:25;;;;;;;5.53;1.05;;;;;;;;;;5074365;28;20032;-78
2022/04/03 11:58:54;;;;;;;3.70;1.10;;;;;;;;;;5110082;28;20642;-78
2022/04/03 12:01:29;;;;;;;3.88;1.13;;;;;;;;;;5097871;28;20262;-78
2022/04/03 12:04:00;;;;;;;4.18;1.00;;;;;;;;;;5077888;28;20088;-78
2022/04/03 12:06:26;;;;;;;3.25;0.80;;;;;;;;;;5074056;28;20033;-78
2022/04/03 12:08:52;;;;;;;3.65;0.90;;;;;;;;;;5080521;28;20023;-78
2022/04/03 12:11:24;;;;;;;4.55;1.40;;;;;;;;;;5080267;28;20094;-80
2022/04/03 12:13:50;;;;;;;;;;;;;;;;;;5078467;28;20043;-82
2022/04/03 12:16:25;;;;;;;3.80;1.48;;;;;;;;;;5077271;28;19908;-78
2022/04/03 12:18:55;;;;;;;6.88;1.60;;;;;;;;;;5060845;28;20028;-78
2022/04/03 12:21:51;;;;;;;6.80;1.65;;;;;;;;;;5044354;28;20456;-81
2022/04/03 12:24:21;;;;;;;3.25;1.77;;;;;;;;;;5106724;28;20497;-79
2022/04/03 12:26:52;;;;;;;3.42;0.90;;;;;;;;;;5080476;28;20485;-78
2022/04/03 12:29:18;;;;;;;7.85;1.08;;;;;;;;;;5081007;28;20114;-77
2022/04/03 12:31:44;;;;;;;2.90;1.20;;;;;;;;;;5080279;28;20474;-78
2022/04/03 12:34:11;;;;;;;5.25;1.17;;;;;;;;;;5080450;28;20118;-79
2022/04/03 12:36:38;;;;;;;3.08;0.90;;;;;;;;;;5113600;28;20031;-84
2022/04/03 12:39:04;;;;;;;3.67;1.02;;;;;;;;;;5079644;28;20040;-80
2022/04/03 12:41:29;;;;;;;4.68;0.98;;;;;;;;;;5063591;28;20050;-78
2022/04/03 12:43:59;;;;;;;4.13;1.23;;;;;;;;;;5080195;28;20028;-77
2022/04/03 12:46:35;;;;;;;10.57;1.50;;;;;;;;;;5096852;28;20035;-77
2022/04/03 12:49:01;;;;;;;10.90;1.58;;;;;;;;;;5095706;28;20042;-76
2022/04/03 12:51:26;;;;;;;12.25;2.08;;;;;;;;;;5111343;28;20048;-77
2022/04/03 12:53:52;;;;;;;17.38;1.70;;;;;;;;;;5093844;28;20035;-76
2022/04/03 12:56:17;;;;;;;9.82;2.45;;;;;;;;;;5074711;28;20032;-77
2022/04/03 12:58:48;;;;;;;8.65;1.75;;;;;;;;;;5078754;28;20509;-76
2022/04/03 13:01:14;;;;;;;10.18;2.05;;;;;;;;;;5113611;28;20032;-76
2022/04/03 13:03:49;;;;;;;14.57;1.30;;;;;;;;;;5112233;28;20032;-76
2022/04/03 13:06:22;;;;;;;7.28;0.90;;;;;;;;;;5112427;28;20043;-77
2022/04/03 13:08:50;;;;;;;6.50;1.20;;;;;;;;;;5112879;28;20498;-77
2022/04/03 13:11:45;;;;;;;4.10;0.85;;;;;;;;;;5079729;28;20039;-77
2022/04/03 13:14:27;;;;;;;9.52;1.33;;;;;;;;;;5106153;28;20109;-77
2022/04/03 13:17:01;;;;;;;7.78;1.80;;;;;;;;;;5075713;28;20089;-77
2022/04/03 13:19:27;;;;;;;6.03;0.93;;;;;;;;;;5060674;28;20537;-77
2022/04/03 13:21:54;;;;;;;4.97;0.93;;;;;;;;;;5075571;28;20046;-77
2022/04/03 13:24:19;;;;;;;6.72;0.80;;;;;;;;;;5068824;28;20035;-77
2022/04/03 13:26:45;;;;;;;5.57;1.17;;;;;;;;;;5091896;28;20100;-77
2022/04/03 13:29:12;;;;;;;7.50;1.02;;;;;;;;;;5092911;28;20107;-77
2022/04/03 13:31:38;;;;;;;5.55;0.80;;;;;;;;;;5059546;28;20439;-77
2022/04/03 13:34:04;;;;;;;3.38;0.70;;;;;;;;;;5075913;28;20063;-77
2022/04/03 13:36:31;;;;;;;8.60;1.13;;;;;;;;;;5075777;28;20502;-76
2022/04/03 13:38:56;;;;;;;3.97;1.05;;;;;;;;;;5058716;28;20032;-77
2022/04/03 13:41:22;;;;;;;5.55;0.90;;;;;;;;;;5092208;28;20047;-77
2022/04/03 13:43:47;;;;;;;5.13;0.82;;;;;;;;;;5076774;28;20036;-76
2022/04/03 13:46:13;;;;;;;5.55;1.35;;;;;;;;;;5075828;28;20097;-76
2022/04/03 13:48:39;;;;;;;4.28;0.90;;;;;;;;;;5075879;28;20383;-76
2022/04/03 13:51:14;;;;;;;3.05;0.80;;;;;;;;;;5075277;28;20047;-77
2022/04/03 13:53:40;;;;;;;3.00;0.65;;;;;;;;;;5059885;28;20036;-76
2022/04/03 13:56:06;;;;;;;10.10;1.92;;;;;;;;;;5075218;28;20043;-76
2022/04/03 13:58:32;;;;;;;1.48;0.55;;;;;;;;;;5109113;28;20028;-77
2022/04/03 14:00:57;;;;;;;2.78;0.98;;;;;;;;;;5092157;28;20383;-77
2022/04/03 14:03:24;;;;;;;2.72;0.70;;;;;;;;;;5075217;28;20485;-77
2022/04/03 14:05:49;;;;;;;3.60;1.17;;;;;;;;;;5091863;28;20048;-76
2022/04/03 14:08:18;;;;;;;3.22;0.68;;;;;;;;;;5090954;28;20469;-77
2022/04/03 14:10:47;;;;;;;2.95;0.77;;;;;;;;;;5075420;28;20548;-76
2022/04/03 14:13:23;;;;;;;2.70;0.63;;;;;;;;;;5091824;28;20142;-76
2022/04/03 14:15:49;;;;;;;2.15;1.08;;;;;;;;;;5092355;28;20050;-77
2022/04/03 14:18:20;;;;;;;3.30;0.82;;;;;;;;;;5058330;28;20111;-77
2022/04/03 14:20:46;;;;;;;6.63;0.57;;;;;;;;;;5075212;28;20497;-77
2022/04/03 14:23:11;;;;;;;6.30;0.80;;;;;;;;;;5075277;28;20035;-77
2022/04/03 14:25:36;;;;;;;3.58;0.95;;;;;;;;;;5091107;28;20398;-77
2022/04/03 14:28:05;;;;;;;4.88;0.50;;;;;;;;;;5091365;28;20032;-77
2022/04/03 14:30:30;;;;;;;2.33;0.57;;;;;;;;;;5091500;28;20516;-77
2022/04/03 14:32:57;;;;;;;1.50;0.52;;;;;;;;;;5108564;28;20043;-77
2022/04/03 14:35:23;;;;;;;2.67;0.60;;;;;;;;;;5091639;28;20040;-77
2022/04/03 14:37:48;;;;;;;2.38;0.65;;;;;;;;;;5091017;28;20032;-77
2022/04/03 14:40:14;;;;;;;2.50;0.60;;;;;;;;;;5091389;28;20044;-77
2022/04/03 14:42:39;;;;;;;2.35;1.10;;;;;;;;;;5091159;28;20044;-77
2022/04/03 14:45:05;;;;;;;3.35;0.63;;;;;;;;;;5111312;28;20039;-77